EDT,Max TemperatureF,Mean TemperatureF,Min TemperatureF,Max Dew PointF,MeanDew PointF,Min DewpointF,Max Humidity, Mean Humidity, Min Humidity, Max Sea Level PressureIn, Mean Sea Level PressureIn, Min Sea Level PressureIn, Max VisibilityMiles, Mean VisibilityMiles, Min VisibilityMiles, Max Wind SpeedMPH, Mean Wind SpeedMPH, Max Gust SpeedMPH,PrecipitationIn, CloudCover, Events, WindDirDegrees
2012-3-1,46,40,33,43,32,28,100,81,65,29.92,29.73,29.54,10,9,6,17,8,26,0.01,8,,253
2012-3-2,48,39,30,39,32,27,93,79,58,29.92,29.77,29.50,10,10,6,21,8,30,0.16,2,,133
2012-3-3,51,40,30,48,27,21,94,67,56,29.72,29.57,29.38,10,10,7,29,18,39,0.00,7,,246
2012-3-4,30,28,26,25,21,19,86,76,64,29.78,29.71,29.68,10,8,1,14,9,22,0.00,8,,272
2012-3-5,24,22,19,18,14,10,86,70,54,30.33,30.06,29.84,10,10,10,14,5,20,0.00,7,,325
2012-3-6,42,30,17,21,17,12,93,62,36,30.50,30.40,30.29,10,10,10,17,8,23,0.00,3,,179
2012-3-7,62,50,39,36,27,19,51,39,31,30.35,30.28,30.17,10,10,10,23,14,32,0.00,0,,202
2012-3-8,55,47,39,50,42,34,94,72,44,30.15,30.00,29.86,10,9,2,22,16,32,0.55,7,,218
2012-3-9,35,30,26,28,22,16,86,71,51,30.37,30.20,30.10,10,9,1,23,10,37,0.01,6,,280
2012-3-10,39,29,19,18,13,9,80,53,36,30.53,30.46,30.39,10,10,10,13,7,20,0.00,2,,258
2012-3-11,62,45,28,28,22,16,64,41,25,30.42,30.36,30.30,10,10,10,15,9,22,0.00,0,,214
2012-3-12,60,48,35,50,33,25,94,59,36,30.30,30.23,30.11,10,10,5,13,5,20,0.33,3,,180
2012-3-13,66,60,53,54,48,39,94,71,40,30.06,30.02,29.97,10,10,8,18,14,33,0.04,5,,245
2012-3-14,69,53,37,43,32,25,75,47,27,30.23,30.17,30.11,10,10,10,10,5,16,0.00,1,,253
2012-3-15,71,60,48,52,44,39,82,62,43,30.23,30.15,30.09,10,10,10,15,7,26,0.00,1,,197
2012-3-16,68,60,55,55,53,52,94,82,60,30.17,30.14,30.04,10,10,7,16,9,16,0.02,7,Thunderstorm,242
2012-3-17,75,58,41,55,48,39,100,77,31,30.29,30.25,30.19,10,5,0,9,3,16,0.00,4,,140
2012-3-18,71,63,55,55,50,43,77,63,48,30.24,30.20,30.14,10,10,10,15,9,20,0.00,4,,175
2012-3-19,66,60,55,55,54,52,100,83,60,30.20,30.16,30.12,10,8,1,10,5,,0.21,7,,176
2012-3-20,75,60,46,55,51,45,100,79,38,30.28,30.22,30.18,10,5,0,7,4,,0.00,3,,95
2012-3-21,75,62,50,55,52,48,100,70,44,30.30,30.26,30.19,10,9,1,14,7,18,0.00,0,,123
2012-3-22,80,62,44,55,49,45,100,71,28,30.25,30.21,30.13,10,8,0,9,5,,0.00,1,,105
2012-3-23,80,64,48,54,48,45,93,62,32,30.15,30.09,29.96,10,8,1,15,5,21,0.00,0,,97
2012-3-24,60,58,57,57,57,55,100,92,82,29.96,29.90,29.84,10,8,2,12,6,16,0.97,8,,137
2012-3-25,59,55,51,52,50,46,100,86,63,29.89,29.87,29.83,10,7,0,12,4,16,0.00,8,,352
2012-3-26,46,40,33,43,26,10,87,62,31,30.23,30.11,29.96,10,10,10,15,10,25,0.00,3,,348
2012-3-27,51,36,21,16,12,9,74,48,21,30.36,30.31,30.18,10,10,10,10,5,,0.00,0,,72
2012-3-28,73,58,44,48,31,18,59,39,25,30.00,29.81,29.67,10,10,10,28,13,43,0.02,4,Thunderstorm,234
2012-3-29,44,40,37,36,30,28,75,70,65,30.06,29.98,29.87,10,10,10,13,10,20,0.00,8,,320
2012-3-30,55,40,26,39,26,19,80,63,35,30.09,30.00,29.80,10,10,9,15,5,18,0.03,3,,95
2012-3-31,44,40,35,43,36,34,100,88,81,29.94,29.85,29.71,10,8,1,10,5,,0.00,8,,337